createdAt,value
2019-04-20T13:21:52.734Z,20.20
2019-04-20T13:24:25.064Z,14.40
2019-04-20T13:26:56.774Z,17.00
2019-04-20T13:29:28.999Z,15.00
2019-04-20T13:32:00.343Z,16.00
2019-04-20T13:34:32.039Z,14.00
2019-04-20T13:37:04.276Z,13.00
2019-04-20T13:39:35.582Z,23.40
2019-04-20T13:42:13.997Z,18.00
2019-04-20T13:44:40.997Z,19.00
2019-04-20T13:47:12.874Z,14.80
2019-04-20T13:49:45.211Z,14.40
2019-04-20T13:52:17.013Z,12.40
2019-04-20T13:54:49.670Z,15.00
2019-04-20T13:57:21.998Z,15.20
2019-04-20T13:59:53.247Z,14.40
2019-04-20T14:02:24.870Z,17.20
2019-04-20T14:04:56.988Z,15.20
2019-04-20T14:07:29.267Z,13.80
2019-04-20T14:10:01.785Z,16.80
2019-04-20T14:12:38.560Z,13.80
2019-04-20T14:15:07.063Z,16.00
2019-04-20T14:17:39.257Z,13.40
2019-04-20T14:20:14.967Z,14.80
2019-04-20T14:22:45.202Z,13.60
2019-04-20T14:25:16.564Z,15.40
2019-04-20T14:27:48.703Z,18.40
2019-04-20T14:30:21.150Z,6.00
2019-04-20T14:32:54.706Z,12.80
2019-04-20T14:35:27.060Z,16.60
2019-04-20T14:37:59.672Z,12.80
2019-04-20T14:40:32.384Z,13.00
2019-04-20T14:43:05.104Z,14.20
2019-04-20T14:45:36.636Z,15.40
2019-04-20T14:48:07.991Z,15.60
2019-04-20T14:50:39.103Z,16.40
2019-04-20T14:53:11.557Z,14.80
2019-04-20T14:55:43.726Z,15.00
2019-04-20T14:58:15.352Z,16.80
2019-04-20T15:00:51.054Z,14.00
2019-04-20T15:03:19.964Z,20.20
2019-04-20T15:05:55.936Z,14.60
2019-04-20T15:08:27.509Z,13.60
2019-04-20T15:10:59.255Z,17.60
2019-04-20T15:13:30.791Z,13.20
2019-04-20T15:16:02.514Z,10.40
2019-04-20T15:18:33.886Z,16.60
2019-04-20T15:21:05.790Z,16.20
2019-04-20T15:23:37.388Z,14.60
2019-04-20T15:26:08.766Z,16.20
2019-04-20T15:28:39.882Z,18.20
2019-04-20T15:31:12.181Z,18.00
2019-04-20T15:33:43.455Z,14.60
2019-04-20T15:36:15.850Z,18.00
2019-04-20T15:38:47.512Z,15.00
2019-04-20T15:41:18.947Z,20.00
2019-04-20T15:43:51.206Z,18.40
2019-04-20T15:46:23.450Z,19.40
2019-04-20T15:48:55.796Z,19.40
2019-04-20T15:51:27.964Z,18.60
2019-04-20T15:53:59.965Z,18.80
2019-04-20T15:56:31.250Z,17.40
2019-04-20T15:59:02.576Z,20.40
2019-04-20T16:01:34.365Z,24.60
2019-04-20T16:04:05.682Z,21.80
2019-04-20T16:06:37.023Z,22.40
2019-04-20T16:09:08.398Z,23.20
2019-04-20T16:11:41.173Z,19.80
2019-04-20T16:14:13.599Z,23.00
2019-04-20T16:16:44.864Z,22.20
2019-04-20T16:19:27.641Z,22.80
2019-04-20T16:21:49.905Z,21.20
2019-04-20T16:24:22.347Z,24.80
2019-04-20T16:26:53.803Z,22.80
2019-04-20T16:29:25.861Z,24.80
2019-04-20T16:31:58.272Z,24.60
2019-04-20T16:34:29.692Z,27.60
2019-04-20T16:37:02.175Z,24.20
2019-04-20T16:39:34.366Z,26.80
2019-04-20T16:42:06.533Z,24.40
2019-04-20T16:44:38.890Z,25.60
2019-04-20T16:47:10.424Z,27.80
2019-04-20T16:49:41.512Z,28.00
2019-04-20T16:52:12.940Z,21.60
2019-04-20T16:54:44.299Z,26.80
2019-04-20T16:57:17.116Z,27.60
2019-04-20T16:59:52.471Z,29.20
2019-04-20T17:02:22.763Z,25.60
2019-04-20T17:04:55.414Z,28.00
2019-04-20T17:07:27.146Z,29.60
2019-04-20T17:09:58.264Z,21.40
2019-04-20T17:12:30.098Z,22.20
2019-04-20T17:15:01.741Z,32.80
2019-04-20T17:17:33.606Z,30.20
2019-04-20T17:20:07.300Z,19.60
2019-04-20T17:22:40.183Z,30.20
2019-04-20T17:25:14.218Z,24.60
2019-04-20T17:27:46.816Z,26.20
2019-04-20T17:30:23.178Z,30.60
2019-04-20T17:32:53.722Z,29.20
2019-04-20T17:35:37.056Z,30.20
2019-04-20T17:37:58.486Z,28.40
2019-04-20T17:40:52.913Z,31.60
2019-04-20T17:43:16.052Z,31.60
2019-04-20T17:45:49.746Z,27.20
2019-04-20T17:48:26.997Z,29.80
2019-04-20T17:51:04.654Z,28.60
2019-04-20T17:53:29.406Z,30.40
2019-04-20T17:55:51.776Z,29.80
2019-04-20T17:58:27.962Z,29.40
2019-04-20T18:00:58.248Z,27.80
2019-04-20T18:04:03.613Z,32.40
2019-04-20T18:06:19.951Z,31.00
2019-04-20T18:08:56.138Z,31.00
2019-04-20T18:11:15.204Z,33.20
2019-04-20T18:13:44.881Z,31.40
2019-04-20T18:16:35.512Z,32.60
2019-04-20T18:18:58.506Z,34.20
2019-04-20T18:21:21.624Z,31.20
2019-04-20T18:23:54.085Z,34.00
2019-04-20T18:26:45.416Z,33.00
2019-04-20T18:29:21.327Z,29.80
2019-04-20T18:31:33.533Z,39.60
2019-04-20T18:34:11.350Z,31.40
2019-04-20T18:36:42.589Z,33.20
2019-04-20T18:39:16.153Z,35.20
2019-04-20T18:41:51.472Z,33.80
2019-04-20T18:44:27.937Z,37.20
2019-04-20T18:47:10.882Z,37.00
2019-04-20T18:49:38.662Z,34.20
2019-04-20T18:51:59.808Z,34.80
2019-04-20T18:54:35.319Z,35.80
2019-04-20T18:57:11.416Z,35.20
2019-04-20T18:59:42.610Z,36.20
2019-04-20T19:02:18.552Z,40.40
2019-04-20T19:04:45.776Z,39.20
2019-04-20T19:07:17.549Z,38.60
2019-04-20T19:09:53.791Z,43.60
2019-04-20T19:12:28.510Z,41.80
2019-04-20T19:15:03.430Z,38.20
2019-04-20T19:17:41.662Z,42.60
2019-04-20T19:20:03.233Z,41.40
2019-04-20T19:22:36.722Z,38.60
2019-04-20T19:25:09.978Z,44.60
2019-04-20T19:27:48.416Z,41.00
2019-04-20T19:30:26.319Z,45.40
2019-04-20T19:33:06.018Z,47.00
2019-04-20T19:35:33.548Z,46.80
2019-04-20T19:38:06.594Z,45.80
2019-04-20T19:40:40.996Z,44.40
2019-04-20T19:43:14.783Z,46.80
2019-04-20T19:45:57.898Z,51.00
2019-04-20T19:48:22.123Z,46.60
2019-04-20T19:51:05.587Z,47.40
2019-04-20T19:53:30.884Z,48.60
2019-04-20T19:56:00.448Z,50.00
2019-04-20T19:58:30.269Z,45.00
2019-04-20T20:00:55.532Z,50.20
2019-04-20T20:03:27.783Z,48.40
2019-04-20T20:06:00.030Z,49.40
2019-04-20T20:08:35.795Z,46.80
2019-04-20T20:11:09.648Z,49.80
2019-04-20T20:13:46.089Z,53.40
2019-04-20T20:16:22.508Z,53.60
2019-04-20T20:18:58.920Z,53.20
2019-04-20T20:21:27.316Z,50.80
2019-04-20T20:23:52.229Z,56.00
2019-04-20T20:26:31.018Z,55.80
2019-04-20T20:29:08.212Z,50.80
2019-04-20T20:31:48.680Z,60.20
2019-04-20T20:34:14.305Z,60.20
2019-04-20T20:36:43.746Z,60.40
2019-04-20T20:39:19.677Z,58.40
2019-04-20T20:41:53.329Z,60.20
2019-04-20T20:44:27.635Z,61.40
2019-04-20T20:47:00.798Z,61.20
2019-04-20T20:49:38.590Z,65.00
2019-04-20T20:52:17.063Z,65.00
2019-04-20T20:54:41.358Z,63.80
2019-04-20T20:57:07.345Z,63.20
2019-04-20T20:59:42.726Z,66.60
2019-04-20T21:02:15.774Z,67.00
2019-04-20T21:04:42.015Z,67.20
2019-04-20T21:07:13.239Z,70.20
2019-04-20T21:09:44.566Z,67.20
2019-04-20T21:12:18.074Z,67.00
2019-04-20T21:14:49.166Z,69.20
2019-04-20T21:17:25.188Z,71.00
2019-04-20T21:20:14.453Z,69.20
2019-04-20T21:22:45.009Z,65.20
2019-04-20T21:25:00.953Z,70.60
2019-04-20T21:27:32.872Z,67.20
2019-04-20T21:30:05.657Z,66.60
2019-04-20T21:32:44.163Z,68.20
2019-04-20T21:35:14.234Z,66.00
2019-04-20T21:37:52.555Z,67.00
2019-04-20T21:40:26.778Z,66.50
2019-04-20T21:42:58.612Z,70.50
2019-04-20T21:45:30.450Z,77.50
2019-04-20T21:48:01.307Z,74.75
2019-04-20T21:50:53.488Z,73.00
2019-04-20T21:53:12.814Z,77.25
2019-04-20T21:55:37.375Z,72.25
2019-04-20T21:58:10.243Z,72.00
2019-04-20T22:00:46.045Z,71.00
2019-04-20T22:03:16.848Z,68.25
2019-04-20T22:05:50.556Z,73.00
2019-04-20T22:08:22.235Z,77.00
2019-04-20T22:10:53.581Z,73.00
2019-04-20T22:13:31.112Z,73.50
2019-04-20T22:16:03.607Z,73.00
2019-04-20T22:18:45.512Z,78.50
2019-04-20T22:21:16.705Z,83.50
2019-04-20T22:23:54.367Z,76.50
2019-04-20T22:26:24.438Z,82.50
2019-04-20T22:28:44.731Z,82.25
2019-04-20T22:31:16.046Z,81.75
2019-04-20T22:33:48.950Z,89.50
2019-04-20T22:36:24.005Z,98.75
2019-04-20T22:38:56.609Z,87.75
2019-04-20T22:41:27.877Z,95.00
2019-04-20T22:44:01.791Z,87.75
2019-04-20T22:46:35.589Z,88.75
2019-04-20T22:49:22.265Z,91.50
2019-04-20T22:51:50.820Z,94.00
2019-04-20T22:54:27.884Z,85.50
2019-04-20T22:56:58.630Z,92.50
2019-04-20T22:59:23.449Z,85.25
2019-04-20T23:01:58.236Z,86.50
2019-04-20T23:04:26.745Z,87.25
2019-04-20T23:06:59.145Z,92.75
2019-04-20T23:09:34.097Z,91.75
2019-04-20T23:12:09.652Z,103.00
2019-04-20T23:14:38.259Z,98.00
2019-04-20T23:17:10.372Z,110.50
2019-04-20T23:19:48.843Z,98.50
2019-04-20T23:22:16.034Z,104.50
2019-04-20T23:24:48.981Z,110.50
2019-04-20T23:27:26.268Z,110.75
2019-04-20T23:29:53.346Z,112.75
2019-04-20T23:32:28.001Z,118.25
2019-04-20T23:35:03.905Z,116.75
2019-04-20T23:37:34.726Z,115.00
2019-04-20T23:40:08.178Z,113.75
2019-04-20T23:42:40.836Z,125.25
2019-04-20T23:45:11.561Z,132.00
2019-04-20T23:47:47.847Z,135.25
2019-04-20T23:50:37.220Z,127.25
2019-04-20T23:53:10.395Z,139.25
2019-04-20T23:55:23.622Z,144.00
2019-04-20T23:58:00.679Z,135.50
